createdAt,value
2022-07-29T00:02:25.617Z,44.98
2022-07-29T00:04:52.370Z,44.90
2022-07-29T00:07:18.945Z,44.86
2022-07-29T00:09:51.911Z,44.72
2022-07-29T00:12:26.499Z,45.06
2022-07-29T00:14:57.251Z,45.46
2022-07-29T00:17:25.205Z,45.33
2022-07-29T00:19:51.898Z,45.13
2022-07-29T00:22:19.079Z,45.38
2022-07-29T00:24:45.602Z,45.56
2022-07-29T00:27:12.135Z,45.53
2022-07-29T00:29:38.695Z,45.58
2022-07-29T00:32:05.611Z,46.09
2022-07-29T00:34:51.053Z,45.71
2022-07-29T00:37:17.598Z,45.62
2022-07-29T00:39:44.590Z,45.90
2022-07-29T00:42:11.714Z,45.73
2022-07-29T00:44:42.438Z,45.75
2022-07-29T00:47:10.790Z,45.79
2022-07-29T00:49:39.640Z,45.84
2022-07-29T00:52:07.031Z,45.75
2022-07-29T00:54:34.793Z,45.78
2022-07-29T00:57:01.857Z,45.90
2022-07-29T00:59:35.117Z,46.01
2022-07-29T01:02:03.922Z,45.96
2022-07-29T01:04:31.962Z,45.69
2022-07-29T01:06:59.631Z,45.68
2022-07-29T01:09:40.821Z,45.59
2022-07-29T01:12:22.466Z,45.91
2022-07-29T01:14:50.680Z,46.15
2022-07-29T01:17:50.413Z,46.03
2022-07-29T01:20:57.331Z,46.01
2022-07-29T01:24:02.222Z,46.32
2022-07-29T01:26:50.109Z,46.74
2022-07-29T01:29:38.992Z,47.01
2022-07-29T01:32:27.591Z,47.34
2022-07-29T01:35:02.129Z,47.54
2022-07-29T01:37:40.918Z,47.62
2022-07-29T01:40:19.362Z,47.62
2022-07-29T01:42:51.421Z,47.44
2022-07-29T01:45:28.876Z,47.57
2022-07-29T01:48:03.359Z,47.21
2022-07-29T01:50:45.517Z,47.38
2022-07-29T01:53:15.919Z,47.42
2022-07-29T01:55:45.789Z,47.32
2022-07-29T01:58:15.222Z,47.18
2022-07-29T02:00:43.671Z,47.45
2022-07-29T02:03:12.692Z,47.45
2022-07-29T02:05:42.032Z,47.40
2022-07-29T02:08:10.485Z,47.32
2022-07-29T02:10:40.320Z,47.58
2022-07-29T02:13:10.424Z,47.76
2022-07-29T02:15:38.363Z,47.81
2022-07-29T02:18:18.522Z,49.10
2022-07-29T02:20:50.661Z,50.51
2022-07-29T02:23:21.524Z,50.96
2022-07-29T02:25:52.408Z,51.16
2022-07-29T02:28:21.251Z,51.33
2022-07-29T02:30:49.611Z,50.33
2022-07-29T02:33:19.302Z,50.40
2022-07-29T02:35:48.045Z,50.30
2022-07-29T02:38:35.747Z,50.79
2022-07-29T02:41:06.989Z,50.62
2022-07-29T02:43:35.147Z,50.78
2022-07-29T02:46:05.557Z,50.36
2022-07-29T02:48:44.981Z,50.35
2022-07-29T02:51:43.672Z,50.07
2022-07-29T02:54:12.284Z,49.77
2022-07-29T02:56:41.394Z,49.94
2022-07-29T02:59:12.619Z,50.99
2022-07-29T03:01:44.595Z,51.06
2022-07-29T03:04:14.412Z,50.86
2022-07-29T03:06:44.077Z,50.92
2022-07-29T03:09:13.758Z,50.85
2022-07-29T03:11:49.925Z,50.45
2022-07-29T03:14:21.755Z,50.76
2022-07-29T03:16:49.711Z,51.19
2022-07-29T03:19:17.239Z,52.23
2022-07-29T03:21:43.813Z,56.98
2022-07-29T03:24:11.074Z,58.64
2022-07-29T03:26:38.479Z,59.47
2022-07-29T03:29:05.118Z,60.26
2022-07-29T03:31:33.340Z,62.40
2022-07-29T03:34:00.061Z,63.30
2022-07-29T03:36:26.758Z,65.11
2022-07-29T03:38:54.034Z,66.18
2022-07-29T03:41:25.183Z,69.75
2022-07-29T03:43:54.422Z,72.44
2022-07-29T03:46:24.858Z,73.76
2022-07-29T03:48:57.433Z,76.92
2022-07-29T03:51:33.282Z,77.29
2022-07-29T03:54:09.961Z,78.77
2022-07-29T03:56:47.571Z,75.67
2022-07-29T03:59:20.723Z,76.44
2022-07-29T04:01:48.091Z,78.33
2022-07-29T04:04:15.015Z,75.71
2022-07-29T04:06:44.219Z,77.19
2022-07-29T04:09:11.735Z,80.58
2022-07-29T04:12:03.139Z,84.63
2022-07-29T04:14:32.863Z,87.12
2022-07-29T04:17:04.805Z,88.93
2022-07-29T04:19:32.395Z,88.32
2022-07-29T04:22:00.528Z,83.64
2022-07-29T04:24:27.600Z,82.17
2022-07-29T04:26:54.562Z,82.66
2022-07-29T04:29:21.736Z,84.12
2022-07-29T04:31:48.504Z,81.50
2022-07-29T04:34:15.277Z,81.35
2022-07-29T04:36:43.835Z,81.35
2022-07-29T04:39:11.273Z,77.88
2022-07-29T04:41:38.041Z,78.31
2022-07-29T04:44:07.176Z,78.16
2022-07-29T04:46:35.739Z,78.42
2022-07-29T04:49:04.164Z,77.90
2022-07-29T04:51:30.771Z,79.55
2022-07-29T04:53:57.513Z,78.28
2022-07-29T04:56:24.433Z,77.93
2022-07-29T04:58:51.898Z,77.29
2022-07-29T05:01:18.825Z,76.66
2022-07-29T05:03:46.345Z,76.47
2022-07-29T05:06:14.628Z,76.53
2022-07-29T05:08:41.928Z,76.92
2022-07-29T05:11:11.547Z,73.87
2022-07-29T05:13:45.464Z,73.83
2022-07-29T05:16:15.315Z,72.55
2022-07-29T05:18:43.092Z,73.95
2022-07-29T05:21:10.942Z,73.16
2022-07-29T05:23:37.949Z,72.86
2022-07-29T05:26:04.561Z,72.49
2022-07-29T05:28:35.875Z,72.30
2022-07-29T05:31:02.768Z,72.03
2022-07-29T05:33:35.323Z,72.88
2022-07-29T05:36:06.654Z,73.56
2022-07-29T05:38:35.504Z,72.12
2022-07-29T05:41:02.287Z,71.73
2022-07-29T05:43:29.464Z,73.13
2022-07-29T05:45:56.390Z,72.86
2022-07-29T05:48:23.122Z,73.52
2022-07-29T05:50:49.938Z,73.65
2022-07-29T05:53:19.871Z,73.22
2022-07-29T05:55:51.407Z,73.34
2022-07-29T05:58:18.062Z,73.72
2022-07-29T06:00:45.545Z,73.55
2022-07-29T06:03:12.274Z,71.43
2022-07-29T06:05:38.940Z,71.48
2022-07-29T06:08:08.799Z,72.04
2022-07-29T06:10:36.190Z,71.13
2022-07-29T06:13:02.837Z,71.62
2022-07-29T06:15:29.413Z,71.92
2022-07-29T06:17:59.299Z,71.60
2022-07-29T06:20:30.774Z,71.16
2022-07-29T06:22:57.979Z,74.41
2022-07-29T06:25:24.628Z,76.98
2022-07-29T06:27:51.223Z,75.74
2022-07-29T06:30:17.906Z,75.87
2022-07-29T06:32:44.448Z,75.86
2022-07-29T06:35:41.068Z,77.39
2022-07-29T06:37:59.623Z,76.08
2022-07-29T06:40:45.693Z,76.25
2022-07-29T06:43:12.378Z,76.17
2022-07-29T06:45:42.210Z,76.75
2022-07-29T06:48:10.011Z,78.40
2022-07-29T06:50:36.829Z,77.44
2022-07-29T06:53:03.814Z,77.87
2022-07-29T06:55:30.569Z,77.50
2022-07-29T06:57:57.148Z,77.13
2022-07-29T07:00:24.246Z,77.31
2022-07-29T07:02:51.219Z,77.23
2022-07-29T07:05:17.838Z,78.92
2022-07-29T07:07:44.398Z,78.02
2022-07-29T07:10:11.033Z,78.64
2022-07-29T07:12:37.650Z,79.51
2022-07-29T07:15:04.714Z,80.35
2022-07-29T07:17:31.353Z,79.48
2022-07-29T07:19:57.923Z,81.81
2022-07-29T07:22:24.485Z,82.02
2022-07-29T07:24:51.189Z,82.03
2022-07-29T07:27:17.786Z,82.16
2022-07-29T07:29:44.534Z,83.64
2022-07-29T07:32:11.165Z,82.44
2022-07-29T07:34:38.949Z,83.40
2022-07-29T07:37:07.011Z,83.22
2022-07-29T07:39:33.801Z,82.97
2022-07-29T07:42:00.431Z,82.23
2022-07-29T07:44:27.115Z,81.23
2022-07-29T07:46:54.653Z,82.19
2022-07-29T07:49:21.732Z,82.07
2022-07-29T07:51:50.505Z,80.99
2022-07-29T07:54:18.650Z,80.69
2022-07-29T07:56:49.950Z,79.54
2022-07-29T07:59:19.753Z,77.78
2022-07-29T08:01:50.441Z,77.99
2022-07-29T08:04:27.523Z,74.66
2022-07-29T08:06:56.571Z,74.57
2022-07-29T08:09:29.626Z,73.87
2022-07-29T08:11:57.806Z,72.32
2022-07-29T08:14:24.546Z,72.09
2022-07-29T08:16:52.375Z,70.70
2022-07-29T08:19:19.251Z,71.69
2022-07-29T08:21:46.301Z,72.14
2022-07-29T08:24:31.366Z,73.01
2022-07-29T08:26:58.036Z,74.29
2022-07-29T08:29:25.230Z,74.10
2022-07-29T08:31:52.524Z,72.77
2022-07-29T08:34:19.282Z,72.44
2022-07-29T08:36:53.646Z,72.08
2022-07-29T08:39:20.326Z,72.15
2022-07-29T08:41:56.599Z,72.78
2022-07-29T08:44:30.793Z,73.27
2022-07-29T08:46:58.110Z,74.22
2022-07-29T08:49:24.809Z,75.13
2022-07-29T08:51:52.479Z,75.15
2022-07-29T08:54:19.771Z,75.38
2022-07-29T08:56:50.876Z,73.87
2022-07-29T08:59:21.975Z,73.80
2022-07-29T09:01:50.599Z,73.85
2022-07-29T09:04:19.676Z,73.12
2022-07-29T09:06:50.343Z,73.08
2022-07-29T09:09:17.041Z,74.04
2022-07-29T09:11:43.928Z,74.66
2022-07-29T09:14:13.636Z,74.20
2022-07-29T09:16:54.023Z,73.97
2022-07-29T09:19:38.860Z,74.64
2022-07-29T09:22:13.073Z,74.29
2022-07-29T09:24:46.163Z,72.82
2022-07-29T09:27:26.816Z,72.47
2022-07-29T09:29:58.444Z,71.13
2022-07-29T09:32:25.192Z,70.88
2022-07-29T09:34:53.684Z,71.28
2022-07-29T09:37:30.527Z,70.45
2022-07-29T09:39:57.155Z,70.25
2022-07-29T09:42:33.356Z,69.15
2022-07-29T09:44:59.977Z,69.15
2022-07-29T09:47:42.371Z,69.48
2022-07-29T09:50:09.125Z,69.74
2022-07-29T09:52:46.487Z,69.90
2022-07-29T09:55:13.859Z,70.88
2022-07-29T09:57:45.604Z,71.02
2022-07-29T10:00:16.221Z,70.50
2022-07-29T10:02:45.134Z,69.03
2022-07-29T10:05:42.943Z,68.73
2022-07-29T10:08:11.100Z,67.62
2022-07-29T10:10:42.785Z,66.74
2022-07-29T10:13:18.403Z,66.90
2022-07-29T10:15:46.783Z,65.87
2022-07-29T10:18:15.500Z,67.10
2022-07-29T10:20:42.425Z,67.28
2022-07-29T10:23:10.072Z,66.28
2022-07-29T10:25:37.064Z,65.77
2022-07-29T10:28:03.807Z,65.99
2022-07-29T10:30:30.461Z,65.71
2022-07-29T10:33:02.798Z,64.98
2022-07-29T10:35:43.111Z,64.74
2022-07-29T10:38:35.225Z,63.39
2022-07-29T10:41:44.357Z,62.90
2022-07-29T10:44:19.480Z,62.70
2022-07-29T10:46:51.498Z,62.98
2022-07-29T10:49:25.284Z,62.42
2022-07-29T10:52:00.296Z,62.39
2022-07-29T10:54:38.251Z,61.50
2022-07-29T10:57:53.380Z,60.54
2022-07-29T11:00:19.551Z,60.92
2022-07-29T11:02:49.992Z,61.19
2022-07-29T11:05:20.174Z,59.67
2022-07-29T11:08:19.560Z,59.88
2022-07-29T11:10:48.362Z,59.65
2022-07-29T11:13:44.636Z,60.71
2022-07-29T11:16:13.774Z,60.10
2022-07-29T11:19:30.755Z,58.54
2022-07-29T11:21:58.761Z,57.99
2022-07-29T11:24:29.263Z,58.64
2022-07-29T11:27:21.428Z,57.33
2022-07-29T11:29:56.733Z,56.55
2022-07-29T11:32:29.294Z,54.22
2022-07-29T11:35:37.846Z,53.18
2022-07-29T11:38:28.369Z,53.84
2022-07-29T11:41:23.801Z,54.67
2022-07-29T11:46:47.996Z,55.03
2022-07-29T11:49:22.100Z,56.20
2022-07-29T11:52:02.551Z,56.93
2022-07-29T11:54:38.907Z,57.40
2022-07-29T11:57:22.689Z,55.85
2022-07-29T11:59:49.696Z,56.01
2022-07-29T12:02:37.220Z,56.08
2022-07-29T12:05:10.769Z,56.83
2022-07-29T12:07:03.545Z,52.59
2022-07-29T12:07:39.532Z,56.21
2022-07-29T12:10:11.633Z,56.88
2022-07-29T12:12:53.699Z,55.84
2022-07-29T12:15:24.958Z,56.47
2022-07-29T12:18:19.270Z,56.25
2022-07-29T12:20:46.942Z,57.24
2022-07-29T12:23:14.109Z,56.32
2022-07-29T12:25:44.465Z,55.25
2022-07-29T12:28:26.808Z,53.94
2022-07-29T12:30:54.476Z,54.71
2022-07-29T12:33:22.508Z,52.79
2022-07-29T12:36:06.895Z,52.54
2022-07-29T12:38:41.178Z,52.10
2022-07-29T12:41:08.102Z,52.22
2022-07-29T12:43:34.742Z,53.06
2022-07-29T12:46:13.798Z,53.57
2022-07-29T12:48:42.785Z,54.10
2022-07-29T12:51:12.462Z,54.35
2022-07-29T12:53:39.973Z,54.53
2022-07-29T12:56:41.320Z,54.11
2022-07-29T12:59:16.307Z,55.18
2022-07-29T13:01:44.073Z,55.08
2022-07-29T13:04:10.856Z,53.97
2022-07-29T13:06:50.998Z,51.82
2022-07-29T13:09:20.242Z,51.52
2022-07-29T13:11:51.358Z,50.85
2022-07-29T13:14:33.210Z,51.63
2022-07-29T13:17:07.399Z,51.72
2022-07-29T13:19:51.854Z,50.69
2022-07-29T13:22:30.187Z,51.71
2022-07-29T13:24:59.414Z,52.28
2022-07-29T13:27:28.447Z,50.70
2022-07-29T13:29:57.512Z,50.60
2022-07-29T13:32:29.168Z,50.41
2022-07-29T13:34:57.469Z,50.33
2022-07-29T13:37:24.230Z,49.56
2022-07-29T13:39:52.966Z,50.60
2022-07-29T13:42:20.506Z,51.12
2022-07-29T13:44:47.120Z,50.62
2022-07-29T13:47:13.878Z,50.39
2022-07-29T13:49:40.587Z,49.92
2022-07-29T13:52:08.375Z,49.80
2022-07-29T13:54:41.945Z,49.80
2022-07-29T13:57:09.386Z,49.84
2022-07-29T13:59:36.191Z,50.16
2022-07-29T14:02:03.538Z,48.97
2022-07-29T14:04:30.254Z,50.23
2022-07-29T14:06:56.907Z,49.55
2022-07-29T14:09:23.899Z,50.55
2022-07-29T14:11:52.223Z,50.27
2022-07-29T14:14:18.854Z,49.24
2022-07-29T14:16:47.781Z,49.52
2022-07-29T14:19:18.659Z,49.48
2022-07-29T14:21:45.642Z,49.50
2022-07-29T14:24:17.666Z,48.88
2022-07-29T14:26:48.408Z,49.15
2022-07-29T14:29:15.039Z,47.50
2022-07-29T14:31:41.766Z,48.41
2022-07-29T14:34:08.383Z,48.89
2022-07-29T14:36:35.771Z,46.65
2022-07-29T14:39:02.377Z,45.92
2022-07-29T14:41:29.198Z,46.33
2022-07-29T14:43:55.986Z,46.23
2022-07-29T14:46:22.907Z,45.55
2022-07-29T14:48:49.707Z,45.58
2022-07-29T14:51:16.470Z,46.65
2022-07-29T14:53:43.082Z,45.81
2022-07-29T14:56:34.305Z,46.03
2022-07-29T14:58:59.730Z,44.94
2022-07-29T15:01:26.361Z,43.71
2022-07-29T15:03:55.761Z,44.19
2022-07-29T15:06:26.178Z,44.57
2022-07-29T15:08:52.864Z,44.88
2022-07-29T15:11:19.563Z,44.16
2022-07-29T15:13:46.131Z,44.08
2022-07-29T15:16:12.788Z,42.94
2022-07-29T15:18:39.503Z,43.29
2022-07-29T15:21:07.808Z,43.29
2022-07-29T15:23:37.175Z,42.34
2022-07-29T15:26:07.567Z,42.34
2022-07-29T15:28:34.167Z,42.33
2022-07-29T15:31:01.350Z,42.49
2022-07-29T15:33:28.490Z,43.60
2022-07-29T15:35:57.288Z,43.04
2022-07-29T15:38:28.931Z,42.51
2022-07-29T15:40:55.760Z,42.13
2022-07-29T15:43:23.026Z,42.32
2022-07-29T15:46:08.427Z,42.59
2022-07-29T15:48:39.970Z,43.29
2022-07-29T15:51:06.560Z,43.80
2022-07-29T15:53:33.823Z,43.25
2022-07-29T15:56:02.173Z,43.19
2022-07-29T15:58:29.145Z,43.57
2022-07-29T16:00:56.324Z,43.60
2022-07-29T16:03:23.292Z,43.26
2022-07-29T16:05:50.362Z,43.17
2022-07-29T16:08:17.397Z,42.82
2022-07-29T16:10:44.302Z,43.04
2022-07-29T16:13:10.908Z,43.50
2022-07-29T16:15:43.877Z,43.81
2022-07-29T16:18:10.506Z,43.63
2022-07-29T16:20:37.565Z,44.00
2022-07-29T16:23:04.212Z,43.68
2022-07-29T16:25:57.418Z,43.90
2022-07-29T16:28:21.832Z,44.17
2022-07-29T16:30:48.805Z,44.90
2022-07-29T16:33:15.488Z,45.19
2022-07-29T16:35:42.066Z,45.37
2022-07-29T16:38:08.595Z,45.66
2022-07-29T16:40:35.404Z,45.96
2022-07-29T16:43:01.942Z,45.44
2022-07-29T16:45:31.474Z,46.13
2022-07-29T16:48:10.481Z,45.50
2022-07-29T16:50:38.476Z,45.40
2022-07-29T16:53:05.033Z,45.30
2022-07-29T16:55:31.656Z,45.38
2022-07-29T16:57:58.314Z,45.33
2022-07-29T17:00:24.892Z,45.54
2022-07-29T17:02:51.510Z,45.21
2022-07-29T17:05:18.264Z,45.28
2022-07-29T17:07:44.898Z,45.06
2022-07-29T17:10:11.733Z,44.92
2022-07-29T17:12:39.364Z,45.41
2022-07-29T17:15:08.580Z,45.50
2022-07-29T17:17:38.705Z,45.86
2022-07-29T17:20:21.222Z,45.98
2022-07-29T17:22:47.862Z,46.17
2022-07-29T17:25:21.189Z,45.66
2022-07-29T17:27:50.633Z,44.90
2022-07-29T17:30:17.913Z,45.15
2022-07-29T17:32:44.766Z,44.78
2022-07-29T17:35:30.818Z,44.68
2022-07-29T17:37:57.555Z,44.75
2022-07-29T17:40:24.240Z,44.66
2022-07-29T17:42:51.148Z,44.38
2022-07-29T17:45:18.421Z,44.65
2022-07-29T17:47:45.364Z,44.63
2022-07-29T17:50:12.074Z,45.18
2022-07-29T17:52:39.204Z,44.69
2022-07-29T17:55:07.428Z,45.06
2022-07-29T17:57:34.199Z,44.93
2022-07-29T18:00:00.912Z,45.56
2022-07-29T18:02:28.468Z,45.15
2022-07-29T18:04:55.359Z,44.68
2022-07-29T18:07:21.974Z,45.14
2022-07-29T18:09:48.618Z,44.96
2022-07-29T18:12:15.241Z,45.18
2022-07-29T18:14:42.088Z,45.08
2022-07-29T18:17:08.760Z,45.41
2022-07-29T18:19:35.416Z,45.68
2022-07-29T18:22:05.221Z,45.52
2022-07-29T18:24:32.943Z,45.53
2022-07-29T18:26:59.993Z,45.54
2022-07-29T18:29:28.951Z,45.24
2022-07-29T18:31:56.275Z,45.39
2022-07-29T18:34:22.899Z,45.25
2022-07-29T18:36:49.482Z,45.23
2022-07-29T18:39:21.243Z,45.78
2022-07-29T18:41:50.604Z,45.65
2022-07-29T18:44:19.120Z,45.62
2022-07-29T18:46:55.442Z,44.62
2022-07-29T18:49:22.728Z,45.56
2022-07-29T18:51:50.095Z,45.79
2022-07-29T18:54:17.554Z,45.34
2022-07-29T18:56:45.429Z,45.60
2022-07-29T18:59:17.144Z,45.35
2022-07-29T19:01:44.695Z,45.55
2022-07-29T19:04:15.301Z,45.66
2022-07-29T19:06:42.161Z,45.52
2022-07-29T19:09:09.253Z,45.81
2022-07-29T19:11:36.769Z,45.66
2022-07-29T19:14:04.772Z,46.17
2022-07-29T19:16:31.949Z,46.80
2022-07-29T19:18:58.670Z,46.77
2022-07-29T19:21:25.364Z,46.57
2022-07-29T19:24:01.908Z,46.99
2022-07-29T19:26:36.404Z,46.98
2022-07-29T19:29:03.426Z,47.27
2022-07-29T19:31:30.412Z,47.01
2022-07-29T19:33:57.138Z,46.92
2022-07-29T19:36:23.694Z,46.68
2022-07-29T19:38:51.310Z,46.55
2022-07-29T19:41:17.939Z,46.75
2022-07-29T19:43:51.727Z,47.21
2022-07-29T19:46:20.415Z,47.33
2022-07-29T19:48:47.078Z,47.42
2022-07-29T19:51:13.789Z,47.45
2022-07-29T19:53:40.325Z,47.50
2022-07-29T19:56:08.969Z,47.49
2022-07-29T19:58:36.077Z,47.46
2022-07-29T20:01:03.052Z,47.62
2022-07-29T20:03:40.358Z,47.98
2022-07-29T20:06:07.599Z,48.04
2022-07-29T20:08:34.620Z,48.16
2022-07-29T20:11:01.221Z,47.97
2022-07-29T20:13:27.901Z,48.42
2022-07-29T20:15:54.552Z,48.53
2022-07-29T20:18:21.328Z,48.44
2022-07-29T20:20:49.537Z,48.55
2022-07-29T20:23:18.251Z,48.36
2022-07-29T20:25:45.304Z,48.62
2022-07-29T20:28:11.905Z,48.97
2022-07-29T20:30:38.788Z,49.67
2022-07-29T20:33:05.718Z,50.16
2022-07-29T20:35:32.436Z,50.67
2022-07-29T20:38:00.309Z,50.88
2022-07-29T20:40:27.688Z,51.36
2022-07-29T20:42:55.223Z,51.69
2022-07-29T20:45:23.379Z,51.99
2022-07-29T20:47:51.622Z,51.75
2022-07-29T20:50:19.106Z,52.39
2022-07-29T20:52:45.775Z,52.15
2022-07-29T20:55:12.434Z,52.55
2022-07-29T20:57:40.019Z,52.61
2022-07-29T21:00:07.798Z,52.94
2022-07-29T21:02:34.730Z,52.70
2022-07-29T21:05:01.441Z,52.90
2022-07-29T21:07:28.069Z,53.18
2022-07-29T21:09:54.667Z,53.60
2022-07-29T21:12:21.495Z,53.56
2022-07-29T21:14:48.216Z,53.60
2022-07-29T21:17:16.625Z,53.47
2022-07-29T21:19:43.289Z,54.00
2022-07-29T21:22:10.535Z,55.09
2022-07-29T21:24:37.495Z,56.28
2022-07-29T21:27:23.183Z,56.28
2022-07-29T21:29:50.073Z,56.42
2022-07-29T21:32:30.130Z,56.41
2022-07-29T21:34:58.022Z,55.82
2022-07-29T21:37:24.805Z,56.06
2022-07-29T21:39:51.616Z,56.36
2022-07-29T21:42:18.603Z,55.95
2022-07-29T21:44:45.192Z,56.04
2022-07-29T21:47:11.932Z,56.01
2022-07-29T21:49:39.085Z,55.93
2022-07-29T21:52:06.173Z,55.43
2022-07-29T21:54:34.769Z,55.25
2022-07-29T21:57:02.013Z,55.79
2022-07-29T21:59:29.146Z,55.61
2022-07-29T22:01:55.917Z,55.47
2022-07-29T22:04:22.604Z,55.37
2022-07-29T22:06:49.541Z,55.36
2022-07-29T22:09:16.132Z,55.22
2022-07-29T22:11:43.554Z,55.05
2022-07-29T22:14:10.389Z,55.10
2022-07-29T22:16:37.612Z,55.23
2022-07-29T22:19:04.244Z,55.10
2022-07-29T22:21:31.495Z,54.89
2022-07-29T22:23:58.344Z,55.05
2022-07-29T22:26:24.997Z,54.79
2022-07-29T22:28:51.577Z,54.64
2022-07-29T22:31:18.515Z,54.63
2022-07-29T22:33:45.229Z,54.35
2022-07-29T22:36:11.809Z,54.37
2022-07-29T22:38:38.470Z,54.88
2022-07-29T22:41:05.342Z,54.54
2022-07-29T22:43:31.992Z,54.65
2022-07-29T22:45:58.850Z,54.55
2022-07-29T22:48:25.498Z,54.12
2022-07-29T22:50:52.114Z,54.44
2022-07-29T22:53:18.800Z,54.50
2022-07-29T22:55:45.414Z,54.71
2022-07-29T22:58:12.069Z,54.23
2022-07-29T23:00:38.697Z,54.44
2022-07-29T23:03:05.259Z,54.75
2022-07-29T23:05:32.509Z,54.57
2022-07-29T23:07:59.280Z,54.78
2022-07-29T23:10:26.164Z,55.04
2022-07-29T23:12:53.004Z,55.29
2022-07-29T23:15:19.785Z,55.62
2022-07-29T23:17:46.710Z,55.82
2022-07-29T23:20:14.909Z,56.13
2022-07-29T23:22:41.924Z,56.26
2022-07-29T23:25:09.095Z,56.19
2022-07-29T23:27:35.939Z,56.23
2022-07-29T23:30:03.265Z,56.23
2022-07-29T23:32:30.016Z,55.96
2022-07-29T23:34:56.959Z,56.07
2022-07-29T23:37:23.517Z,55.88
2022-07-29T23:39:50.184Z,55.92
2022-07-29T23:42:16.753Z,55.76
2022-07-29T23:44:43.303Z,55.92
2022-07-29T23:47:09.928Z,56.01
2022-07-29T23:49:36.453Z,56.89
2022-07-29T23:52:03.074Z,57.11
2022-07-29T23:54:29.740Z,57.63
2022-07-29T23:56:57.833Z,57.62
2022-07-29T23:59:24.886Z,57.85
